Time;durP1;ratioP1;P1;durP2;ratioP2;P2;SDS_P1;SDS_P2;PMS_P1;PMS_P2;Temp;Humidity;BMP_temperature;BMP_pressure;BME280_temperature;BME280_humidity;BME280_pressure;Samples;Min_cycle;Max_cycle;Signal;HPM_P1;HPM_P2
2021/10/27 00:00:44;;;;;;;21.25;12.55;;;;;;;;;;5040331;28;20072;-81
2021/10/27 00:03:10;;;;;;;23.15;13.32;;;;;;;;;;5041598;28;20049;-82
2021/10/27 00:05:37;;;;;;;22.65;13.18;;;;;;;;;;5041100;28;20108;-80
2021/10/27 00:08:05;;;;;;;22.60;13.13;;;;;;;;;;5040189;28;20060;-82
2021/10/27 00:10:31;;;;;;;23.70;13.05;;;;;;;;;;5040571;28;20103;-81
2021/10/27 00:12:58;;;;;;;24.77;12.65;;;;;;;;;;5040292;28;20050;-81
2021/10/27 00:15:26;;;;;;;22.05;13.48;;;;;;;;;;5039438;28;20053;-82
2021/10/27 00:17:53;;;;;;;20.65;12.07;;;;;;;;;;5040564;28;20076;-82
2021/10/27 00:20:20;;;;;;;20.67;11.85;;;;;;;;;;5047427;28;20072;-82
2021/10/27 00:22:47;;;;;;;21.90;11.90;;;;;;;;;;5051026;28;20080;-82
2021/10/27 00:25:13;;;;;;;16.90;11.68;;;;;;;;;;5041198;28;20052;-81
2021/10/27 00:27:41;;;;;;;21.98;12.80;;;;;;;;;;5040649;28;20045;-83
2021/10/27 00:30:09;;;;;;;19.65;12.55;;;;;;;;;;5039872;28;20054;-80
2021/10/27 00:32:37;;;;;;;20.27;11.45;;;;;;;;;;5040473;28;20057;-83
2021/10/27 00:35:06;;;;;;;21.25;12.45;;;;;;;;;;5040601;28;20111;-81
2021/10/27 00:37:32;;;;;;;23.00;11.70;;;;;;;;;;5041334;28;20503;-81
2021/10/27 00:39:59;;;;;;;19.35;11.73;;;;;;;;;;5041693;28;20072;-82
2021/10/27 00:42:26;;;;;;;20.25;11.75;;;;;;;;;;5054160;28;20072;-81
2021/10/27 00:44:53;;;;;;;20.08;11.13;;;;;;;;;;5056274;28;20049;-82
2021/10/27 00:47:20;;;;;;;18.95;11.93;;;;;;;;;;5042062;28;20045;-81
2021/10/27 00:49:49;;;;;;;20.23;11.25;;;;;;;;;;5041149;28;20060;-79
2021/10/27 00:52:18;;;;;;;18.85;11.73;;;;;;;;;;5040461;28;20050;-82
2021/10/27 00:54:47;;;;;;;18.05;10.32;;;;;;;;;;5040198;28;20045;-82
2021/10/27 00:57:16;;;;;;;19.58;11.90;;;;;;;;;;5041437;28;20046;-82
2021/10/27 00:59:45;;;;;;;17.67;10.93;;;;;;;;;;5040483;28;20072;-83
2021/10/27 01:02:14;;;;;;;21.52;11.93;;;;;;;;;;5040100;28;20049;-82
2021/10/27 01:04:41;;;;;;;19.55;12.10;;;;;;;;;;5041211;28;20080;-81
2021/10/27 01:07:10;;;;;;;22.70;12.50;;;;;;;;;;5039739;28;20134;-82
2021/10/27 01:09:38;;;;;;;29.38;15.30;;;;;;;;;;5040630;28;20057;-82
2021/10/27 01:12:06;;;;;;;22.80;13.38;;;;;;;;;;5040458;28;20099;-84
2021/10/27 01:14:38;;;;;;;26.00;13.27;;;;;;;;;;5041015;28;20049;-81
2021/10/27 01:17:06;;;;;;;29.75;15.30;;;;;;;;;;5039773;28;20463;-82
2021/10/27 01:19:43;;;;;;;28.30;15.75;;;;;;;;;;5039432;28;20060;-81
2021/10/27 01:22:10;;;;;;;26.13;14.30;;;;;;;;;;5039602;28;20049;-81
2021/10/27 01:24:37;;;;;;;24.73;13.73;;;;;;;;;;5040241;28;20050;-81
2021/10/27 01:27:04;;;;;;;24.48;12.70;;;;;;;;;;5038924;28;20054;-80
2021/10/27 01:29:31;;;;;;;22.42;12.60;;;;;;;;;;5039190;28;20385;-82
2021/10/27 01:31:57;;;;;;;22.08;11.88;;;;;;;;;;5039011;28;20049;-81
2021/10/27 01:34:24;;;;;;;21.00;11.52;;;;;;;;;;5038337;28;20111;-82
2021/10/27 01:36:53;;;;;;;20.67;12.45;;;;;;;;;;5038438;28;20099;-82
2021/10/27 01:39:19;;;;;;;18.63;10.55;;;;;;;;;;5038100;28;20049;-81
2021/10/27 01:41:46;;;;;;;18.85;10.57;;;;;;;;;;5038705;28;20072;-82
2021/10/27 01:44:13;;;;;;;17.33;10.73;;;;;;;;;;5038059;28;20092;-82
2021/10/27 01:46:40;;;;;;;18.13;10.32;;;;;;;;;;5038029;28;20049;-83
2021/10/27 01:49:08;;;;;;;18.40;10.20;;;;;;;;;;5038504;28;20111;-82
2021/10/27 01:51:36;;;;;;;18.17;9.90;;;;;;;;;;5038307;28;20466;-81
2021/10/27 01:54:06;;;;;;;15.98;10.10;;;;;;;;;;5038438;28;20052;-81
2021/10/27 01:56:34;;;;;;;16.30;9.77;;;;;;;;;;5038352;28;20054;-81
2021/10/27 01:59:01;;;;;;;15.50;9.32;;;;;;;;;;5037419;28;20049;-82
2021/10/27 02:01:28;;;;;;;14.10;9.07;;;;;;;;;;5037984;28;20507;-80
2021/10/27 02:03:55;;;;;;;16.70;8.80;;;;;;;;;;5042470;28;20072;-82
2021/10/27 02:06:22;;;;;;;15.65;8.85;;;;;;;;;;5057505;28;20056;-83
2021/10/27 02:08:49;;;;;;;18.75;10.77;;;;;;;;;;5048333;28;20046;-83
2021/10/27 02:11:17;;;;;;;19.48;10.40;;;;;;;;;;5039268;28;20053;-83
2021/10/27 02:13:44;;;;;;;24.08;13.10;;;;;;;;;;5037049;28;20103;-82
2021/10/27 02:16:11;;;;;;;19.77;10.48;;;;;;;;;;5037365;28;20049;-82
2021/10/27 02:18:38;;;;;;;22.65;11.90;;;;;;;;;;5038224;28;20111;-81
2021/10/27 02:21:05;;;;;;;23.52;12.35;;;;;;;;;;5037735;28;20163;-82
2021/10/27 02:23:32;;;;;;;22.25;12.00;;;;;;;;;;5036513;28;20049;-79
2021/10/27 02:25:58;;;;;;;25.75;13.52;;;;;;;;;;5036855;28;20184;-82
2021/10/27 02:28:26;;;;;;;28.35;13.30;;;;;;;;;;5036213;28;20564;-82
2021/10/27 02:30:53;;;;;;;24.63;12.40;;;;;;;;;;5036451;28;20072;-82
2021/10/27 02:33:20;;;;;;;30.85;14.13;;;;;;;;;;5036033;28;20099;-82
2021/10/27 02:35:47;;;;;;;32.25;14.82;;;;;;;;;;5036679;28;20045;-81
2021/10/27 02:38:14;;;;;;;23.92;12.85;;;;;;;;;;5037180;28;20103;-83
2021/10/27 02:40:41;;;;;;;25.58;13.68;;;;;;;;;;5038115;28;20060;-81
2021/10/27 02:43:08;;;;;;;26.85;13.18;;;;;;;;;;5047975;28;20084;-81
2021/10/27 02:45:36;;;;;;;22.30;12.27;;;;;;;;;;5044032;28;20041;-81
2021/10/27 02:48:03;;;;;;;20.80;10.52;;;;;;;;;;5036816;28;20072;-82
2021/10/27 02:50:29;;;;;;;17.42;9.30;;;;;;;;;;5037082;28;20053;-81
2021/10/27 02:52:56;;;;;;;16.55;9.35;;;;;;;;;;5037238;28;20493;-81
2021/10/27 02:55:24;;;;;;;16.17;9.98;;;;;;;;;;5036362;28;20107;-81
2021/10/27 02:57:51;;;;;;;15.15;7.70;;;;;;;;;;5035629;28;20530;-81
2021/10/27 03:00:17;;;;;;;14.05;8.02;;;;;;;;;;5036194;28;20100;-81
2021/10/27 03:02:46;;;;;;;13.07;7.60;;;;;;;;;;5035056;28;20099;-81
2021/10/27 03:05:12;;;;;;;12.77;7.50;;;;;;;;;;5035279;28;20053;-81
2021/10/27 03:07:39;;;;;;;13.70;7.43;;;;;;;;;;5035403;28;20049;-80
2021/10/27 03:10:07;;;;;;;14.02;6.93;;;;;;;;;;5035499;28;20072;-80
2021/10/27 03:12:34;;;;;;;13.85;7.50;;;;;;;;;;5040307;28;20104;-83
2021/10/27 03:15:01;;;;;;;13.32;7.35;;;;;;;;;;5042457;28;20111;-80
2021/10/27 03:17:27;;;;;;;14.02;8.30;;;;;;;;;;5045904;28;20049;-82
2021/10/27 03:19:58;;;;;;;11.50;7.25;;;;;;;;;;5056997;28;20060;-78
2021/10/27 03:22:25;;;;;;;14.73;8.32;;;;;;;;;;5057233;28;20050;-82
2021/10/27 03:24:51;;;;;;;15.00;7.20;;;;;;;;;;5056562;28;20064;-80
2021/10/27 03:27:18;;;;;;;13.13;7.50;;;;;;;;;;5056122;28;20049;-80
2021/10/27 03:29:45;;;;;;;13.00;7.63;;;;;;;;;;5055041;28;20332;-83
2021/10/27 03:32:14;;;;;;;15.07;7.53;;;;;;;;;;5044744;28;20530;-84
2021/10/27 03:34:41;;;;;;;10.35;6.13;;;;;;;;;;5043574;28;20049;-84
2021/10/27 03:37:10;;;;;;;12.75;7.20;;;;;;;;;;5045780;28;20053;-83
2021/10/27 03:39:38;;;;;;;13.40;7.63;;;;;;;;;;5045897;28;20041;-83
2021/10/27 03:42:08;;;;;;;12.00;7.32;;;;;;;;;;5046441;28;20049;-84
2021/10/27 03:44:35;;;;;;;10.98;6.78;;;;;;;;;;5040196;28;20049;-83
2021/10/27 03:47:02;;;;;;;12.75;6.80;;;;;;;;;;5038710;28;20099;-83
2021/10/27 03:49:29;;;;;;;13.75;7.68;;;;;;;;;;5036066;28;20049;-81
2021/10/27 03:51:55;;;;;;;13.07;7.88;;;;;;;;;;5036469;28;20092;-80
2021/10/27 03:54:34;;;;;;;10.77;6.93;;;;;;;;;;5037820;28;20045;-83
2021/10/27 03:57:00;;;;;;;13.27;7.18;;;;;;;;;;5037192;28;20049;-81
2021/10/27 03:59:27;;;;;;;14.23;7.57;;;;;;;;;;5035828;28;20183;-82
2021/10/27 04:01:54;;;;;;;10.82;6.38;;;;;;;;;;5035878;28;20107;-83
2021/10/27 04:04:21;;;;;;;11.27;6.65;;;;;;;;;;5035513;28;20053;-81
2021/10/27 04:06:50;;;;;;;12.50;7.45;;;;;;;;;;5034830;28;20051;-80
2021/10/27 04:09:17;;;;;;;14.55;7.70;;;;;;;;;;5035527;23;20132;-82
2021/10/27 04:11:46;;;;;;;14.80;8.95;;;;;;;;;;5016179;28;20100;-82
2021/10/27 04:14:13;;;;;;;13.18;7.70;;;;;;;;;;5016921;28;20056;-80
2021/10/27 04:16:40;;;;;;;12.48;8.02;;;;;;;;;;5015641;28;20100;-82
2021/10/27 04:19:06;;;;;;;14.00;7.75;;;;;;;;;;5016473;28;20041;-82
2021/10/27 04:21:34;;;;;;;13.45;7.57;;;;;;;;;;5016770;28;20046;-81
2021/10/27 04:24:01;;;;;;;13.98;7.43;;;;;;;;;;5025472;28;20080;-79
2021/10/27 04:26:28;;;;;;;13.10;7.43;;;;;;;;;;5030511;28;20045;-80
2021/10/27 04:28:56;;;;;;;15.35;8.55;;;;;;;;;;5030874;28;20081;-80
2021/10/27 04:31:23;;;;;;;19.63;9.48;;;;;;;;;;5031225;28;20084;-81
2021/10/27 04:33:51;;;;;;;17.98;9.65;;;;;;;;;;5035661;28;20066;-80
2021/10/27 04:36:19;;;;;;;23.40;10.85;;;;;;;;;;5034270;28;20038;-80
2021/10/27 04:38:45;;;;;;;22.98;12.32;;;;;;;;;;5033156;28;20053;-81
2021/10/27 04:41:12;;;;;;;22.33;11.82;;;;;;;;;;5028000;28;20069;-81
2021/10/27 04:43:40;;;;;;;20.52;11.70;;;;;;;;;;5026739;28;20065;-82
2021/10/27 04:46:09;;;;;;;16.40;9.43;;;;;;;;;;5021347;28;20046;-81
2021/10/27 04:48:35;;;;;;;15.77;8.55;;;;;;;;;;5020896;28;20489;-81
2021/10/27 04:51:02;;;;;;;14.88;8.55;;;;;;;;;;5020230;28;20096;-80
2021/10/27 04:53:29;;;;;;;14.07;8.27;;;;;;;;;;5021581;28;20108;-79
2021/10/27 04:55:56;;;;;;;15.07;8.20;;;;;;;;;;5019885;28;20045;-80
2021/10/27 04:58:27;;;;;;;13.73;7.32;;;;;;;;;;5019760;28;20535;-81
2021/10/27 05:00:54;;;;;;;17.65;8.00;;;;;;;;;;5019782;28;20057;-81
2021/10/27 05:03:22;;;;;;;13.55;7.00;;;;;;;;;;5020468;28;20471;-81
2021/10/27 05:05:52;;;;;;;13.93;7.97;;;;;;;;;;5019328;28;20085;-81
2021/10/27 05:08:22;;;;;;;15.10;7.75;;;;;;;;;;5019043;28;20045;-81
2021/10/27 05:10:49;;;;;;;14.60;6.72;;;;;;;;;;5019586;28;20085;-81
2021/10/27 05:13:16;;;;;;;13.48;7.90;;;;;;;;;;5019383;28;20132;-82
2021/10/27 05:15:43;;;;;;;14.15;7.50;;;;;;;;;;5018288;28;20061;-79
2021/10/27 05:18:10;;;;;;;13.93;7.40;;;;;;;;;;5017333;28;20127;-80
2021/10/27 05:20:40;;;;;;;13.07;7.72;;;;;;;;;;5021111;28;20644;-81
2021/10/27 05:23:07;;;;;;;13.63;7.00;;;;;;;;;;5017143;28;20079;-82
2021/10/27 05:25:34;;;;;;;21.40;10.48;;;;;;;;;;5016314;28;20050;-80
2021/10/27 05:28:01;;;;;;;26.60;13.90;;;;;;;;;;5016680;28;20042;-81
2021/10/27 05:30:28;;;;;;;12.93;8.13;;;;;;;;;;5018322;28;20038;-80
2021/10/27 05:32:56;;;;;;;12.60;6.85;;;;;;;;;;5020961;28;20054;-80
2021/10/27 05:35:24;;;;;;;17.52;7.30;;;;;;;;;;5033449;28;20072;-81
2021/10/27 05:37:52;;;;;;;14.13;7.28;;;;;;;;;;5029329;28;20056;-82
2021/10/27 05:40:19;;;;;;;13.13;7.18;;;;;;;;;;5021287;28;20050;-82
2021/10/27 05:42:46;;;;;;;16.35;9.07;;;;;;;;;;5019508;28;20100;-82
2021/10/27 05:45:13;;;;;;;17.60;9.00;;;;;;;;;;5019259;28;20066;-81
2021/10/27 05:47:44;;;;;;;18.40;9.57;;;;;;;;;;5019191;28;20057;-80
2021/10/27 05:50:26;;;;;;;35.03;19.38;;;;;;;;;;5020679;28;20056;-81
2021/10/27 05:55:39;;;;;;;96.18;50.90;;;;;;;;;;5029832;28;20072;-80
2021/10/27 05:58:08;;;;;;;55.38;29.70;;;;;;;;;;5031101;28;20045;-81
2021/10/27 06:00:35;;;;;;;22.65;12.82;;;;;;;;;;5030862;28;20132;-81
2021/10/27 06:03:02;;;;;;;15.20;8.90;;;;;;;;;;5028114;28;20045;-82
2021/10/27 06:05:29;;;;;;;19.45;10.32;;;;;;;;;;5021076;28;20054;-82
2021/10/27 06:07:58;;;;;;;15.98;9.57;;;;;;;;;;5020931;28;20459;-82
2021/10/27 06:10:26;;;;;;;14.80;8.50;;;;;;;;;;5026395;28;20080;-82
2021/10/27 06:12:57;;;;;;;20.08;11.05;;;;;;;;;;5023235;28;20496;-81
2021/10/27 06:15:25;;;;;;;17.27;9.52;;;;;;;;;;5019274;28;20053;-82
2021/10/27 06:17:52;;;;;;;16.35;10.38;;;;;;;;;;5018175;28;20048;-82
2021/10/27 06:20:19;;;;;;;20.83;9.90;;;;;;;;;;5018066;28;20513;-83
2021/10/27 06:22:47;;;;;;;17.55;10.32;;;;;;;;;;5018836;28;20420;-81
2021/10/27 06:25:15;;;;;;;46.92;25.23;;;;;;;;;;5019149;28;20536;-81
2021/10/27 06:27:46;;;;;;;45.08;24.40;;;;;;;;;;5018743;28;20082;-82
2021/10/27 06:30:16;;;;;;;26.73;11.73;;;;;;;;;;5019217;28;20041;-81
2021/10/27 06:32:50;;;;;;;21.65;9.73;;;;;;;;;;5023469;28;20050;-81
2021/10/27 06:35:19;;;;;;;20.42;9.73;;;;;;;;;;5031716;28;20045;-81
2021/10/27 06:48:46;;;;;;;21.65;9.73;;;;;;;;;;5018176;28;20074;-82
2021/10/27 06:51:13;;;;;;;19.65;10.35;;;;;;;;;;5016400;28;20054;-81
2021/10/27 06:53:40;;;;;;;20.70;9.52;;;;;;;;;;5017777;28;20042;-83
2021/10/27 06:56:11;;;;;;;18.83;9.65;;;;;;;;;;5016608;28;20857;-81
2021/10/27 06:58:44;;;;;;;19.08;10.25;;;;;;;;;;5014295;28;20133;-83
2021/10/27 07:01:15;;;;;;;15.90;9.90;;;;;;;;;;5017869;28;20065;-81
2021/10/27 07:03:58;;;;;;;20.85;10.82;;;;;;;;;;5017875;28;20049;-81
2021/10/27 07:06:50;;;;;;;14.18;8.80;;;;;;;;;;5018287;28;20141;-79
2021/10/27 07:15:05;;;;;;;16.92;8.82;;;;;;;;;;4969069;28;20434;-79
2021/10/27 07:17:33;;;;;;;18.17;10.35;;;;;;;;;;4973740;28;20540;-80
2021/10/27 07:20:00;;;;;;;17.30;8.82;;;;;;;;;;4990912;28;20131;-80
2021/10/27 07:22:27;;;;;;;17.67;9.05;;;;;;;;;;5012741;28;20057;-81
2021/10/27 07:24:54;;;;;;;17.92;9.45;;;;;;;;;;5011387;28;20108;-80
2021/10/27 07:27:22;;;;;;;19.75;10.55;;;;;;;;;;5010604;28;20049;-80
2021/10/27 07:29:50;;;;;;;22.92;11.90;;;;;;;;;;5009660;28;20224;-80
2021/10/27 07:32:17;;;;;;;23.38;11.35;;;;;;;;;;5010275;28;20050;-80
2021/10/27 07:34:49;;;;;;;27.08;14.00;;;;;;;;;;5009340;28;20143;-79
2021/10/27 07:42:44;;;;;;;25.38;12.05;;;;;;;;;;4998448;28;20046;-80
2021/10/27 07:45:14;;;;;;;27.73;12.48;;;;;;;;;;5008882;28;20054;-81
2021/10/27 07:47:41;;;;;;;20.60;10.85;;;;;;;;;;5009248;28;20053;-79
2021/10/27 07:50:08;;;;;;;20.40;10.70;;;;;;;;;;5008064;28;20066;-80
2021/10/27 07:52:35;;;;;;;17.45;10.65;;;;;;;;;;5008970;28;20054;-81
2021/10/27 07:55:02;;;;;;;23.38;11.25;;;;;;;;;;5007745;28;20152;-81
2021/10/27 07:57:29;;;;;;;22.73;11.82;;;;;;;;;;5008914;28;20058;-81
2021/10/27 07:59:57;;;;;;;25.70;11.60;;;;;;;;;;5007788;28;20504;-80
2021/10/27 08:02:24;;;;;;;17.48;11.20;;;;;;;;;;5007799;28;20042;-80
2021/10/27 08:04:51;;;;;;;17.55;10.18;;;;;;;;;;5008122;28;20397;-80
2021/10/27 08:07:18;;;;;;;22.50;11.18;;;;;;;;;;5013002;28;20083;-77
2021/10/27 08:09:45;;;;;;;19.58;11.02;;;;;;;;;;5017545;28;20413;-80
2021/10/27 08:12:12;;;;;;;19.98;12.27;;;;;;;;;;5012156;28;20081;-77
2021/10/27 08:14:39;;;;;;;25.98;13.07;;;;;;;;;;5012727;28;20586;-79
2021/10/27 08:17:07;;;;;;;29.70;14.05;;;;;;;;;;5013575;28;20050;-83
2021/10/27 08:19:34;;;;;;;23.30;12.23;;;;;;;;;;5014534;28;20045;-83
2021/10/27 08:22:04;;;;;;;19.65;11.70;;;;;;;;;;5010969;28;20072;-76
2021/10/27 08:24:31;;;;;;;24.13;12.30;;;;;;;;;;5012126;28;20057;-80
2021/10/27 08:27:06;;;;;;;24.80;11.85;;;;;;;;;;5011619;28;20046;-77
2021/10/27 08:29:38;;;;;;;19.83;11.93;;;;;;;;;;5010916;28;20038;-77
2021/10/27 08:32:15;;;;;;;21.98;12.20;;;;;;;;;;5011172;28;20064;-77
2021/10/27 08:34:47;;;;;;;21.20;11.10;;;;;;;;;;5009547;28;20060;-77
2021/10/27 08:37:14;;;;;;;17.58;9.50;;;;;;;;;;5008974;28;20612;-77
2021/10/27 08:39:41;;;;;;;15.35;9.43;;;;;;;;;;5010013;28;20148;-77
2021/10/27 08:42:08;;;;;;;18.40;9.95;;;;;;;;;;5009967;28;20042;-77
2021/10/27 08:44:35;;;;;;;16.08;8.95;;;;;;;;;;5008993;28;20184;-78
2021/10/27 08:47:03;;;;;;;19.13;9.50;;;;;;;;;;5008993;28;20050;-77
2021/10/27 08:49:32;;;;;;;18.52;10.27;;;;;;;;;;5008899;28;20082;-76
2021/10/27 08:51:59;;;;;;;20.23;10.75;;;;;;;;;;5010171;28;20041;-76
2021/10/27 08:54:27;;;;;;;19.25;10.13;;;;;;;;;;5010553;28;20038;-76
2021/10/27 08:56:56;;;;;;;19.02;10.27;;;;;;;;;;5011034;28;20049;-77
2021/10/27 08:59:32;;;;;;;20.42;10.63;;;;;;;;;;5012404;28;20054;-77
2021/10/27 09:02:19;;;;;;;21.25;9.80;;;;;;;;;;5014682;28;20042;-78
2021/10/27 09:05:10;;;;;;;16.45;9.50;;;;;;;;;;5015140;28;20042;-79
2021/10/27 09:07:55;;;;;;;19.42;10.13;;;;;;;;;;5014599;28;20042;-77
2021/10/27 09:16:43;;;;;;;20.40;11.57;;;;;;;;;;4968795;28;20106;-80
2021/10/27 09:33:58;;;;;;;23.83;12.90;;;;;;;;;;5015346;28;20085;-77
2021/10/27 09:36:33;;;;;;;23.13;13.13;;;;;;;;;;5015416;28;20046;-79
2021/10/27 09:39:24;;;;;;;19.30;11.98;;;;;;;;;;5016595;28;20045;-77
2021/10/27 09:44:56;;;;;;;19.30;11.60;;;;;;;;;;5019581;28;20045;-77
2021/10/27 10:04:26;;;;;;;18.17;11.52;;;;;;;;;;5020793;28;20053;-80
2021/10/27 10:06:57;;;;;;;23.95;12.50;;;;;;;;;;5022159;28;20049;-76
2021/10/27 10:09:23;;;;;;;;;;;;;;;;;;5019929;28;20042;-81
2021/10/27 10:11:54;;;;;;;19.95;11.50;;;;;;;;;;5024661;28;20335;-80
2021/10/27 10:14:21;;;;;;;23.05;14.00;;;;;;;;;;5024664;28;20056;-80
2021/10/27 10:16:51;;;;;;;24.17;13.75;;;;;;;;;;5017958;28;20085;-80
2021/10/27 10:19:23;;;;;;;26.00;13.35;;;;;;;;;;5023562;28;20053;-81
2021/10/27 10:21:54;;;;;;;24.77;13.60;;;;;;;;;;5025742;28;20065;-79
2021/10/27 10:24:44;;;;;;;23.05;12.93;;;;;;;;;;5026666;28;20064;-85
2021/10/27 10:27:13;;;;;;;;;;;;;;;;;;5021501;28;20064;-80
2021/10/27 10:29:46;;;;;;;26.08;15.13;;;;;;;;;;5018781;28;19929;-81
2021/10/27 10:32:33;;;;;;;24.60;13.57;;;;;;;;;;5022915;28;20045;-80
2021/10/27 10:35:04;;;;;;;24.25;15.10;;;;;;;;;;5022741;28;20460;-79
2021/10/27 10:37:35;;;;;;;23.70;13.90;;;;;;;;;;5029274;28;20058;-79
2021/10/27 10:40:45;;;;;;;22.83;12.88;;;;;;;;;;5035940;28;20499;-79
2021/10/27 10:43:19;;;;;;;22.13;12.93;;;;;;;;;;5026233;28;20190;-79
2021/10/27 10:45:55;;;;;;;21.98;14.13;;;;;;;;;;5021938;28;20273;-79
2021/10/27 10:57:25;;;;;;;27.20;17.50;;;;;;;;;;5010143;28;20057;-78
2021/10/27 11:03:36;;;;;;;23.58;14.23;;;;;;;;;;4978174;28;20053;-79
2021/10/27 11:23:34;;;;;;;19.40;13.07;;;;;;;;;;4990284;28;20061;-79
2021/10/27 11:37:41;;;;;;;;;;;;;;;;;;5008315;28;20137;-79
2021/10/27 11:40:23;;;;;;;24.00;15.48;;;;;;;;;;5007995;28;19928;-77
2021/10/27 11:42:51;;;;;;;22.88;15.48;;;;;;;;;;5012845;28;20107;-79
2021/10/27 11:45:27;;;;;;;22.60;15.98;;;;;;;;;;5019036;28;20177;-78
2021/10/27 11:47:57;;;;;;;22.63;14.00;;;;;;;;;;5023598;28;20030;-79
2021/10/27 11:50:33;;;;;;;17.80;10.70;;;;;;;;;;5030445;28;20069;-79
2021/10/27 11:53:02;;;;;;;20.38;11.95;;;;;;;;;;5021303;28;20054;-79
2021/10/27 11:55:31;;;;;;;18.88;11.60;;;;;;;;;;5017112;28;20046;-78
2021/10/27 11:57:58;;;;;;;25.30;15.45;;;;;;;;;;5015852;28;20038;-79
2021/10/27 12:00:33;;;;;;;28.55;14.57;;;;;;;;;;5013019;28;21045;-78
2021/10/27 12:03:06;;;;;;;16.13;10.05;;;;;;;;;;5012407;28;20049;-78
2021/10/27 12:05:41;;;;;;;18.80;11.48;;;;;;;;;;5012529;28;20042;-78
2021/10/27 12:08:22;;;;;;;19.27;12.90;;;;;;;;;;5010968;28;20072;-78
2021/10/27 12:11:05;;;;;;;20.92;11.45;;;;;;;;;;5010778;28;20057;-78
2021/10/27 12:19:23;;;;;;;19.17;12.68;;;;;;;;;;4988301;28;20050;-78
2021/10/27 12:21:54;;;;;;;20.48;13.23;;;;;;;;;;5014435;28;20042;-78
2021/10/27 12:24:25;;;;;;;22.45;12.95;;;;;;;;;;5013779;28;20763;-77
2021/10/27 12:27:01;;;;;;;18.73;11.52;;;;;;;;;;5015761;28;20054;-78
2021/10/27 12:29:29;;;;;;;19.60;11.68;;;;;;;;;;5014064;28;20076;-78
2021/10/27 12:32:07;;;;;;;17.60;10.80;;;;;;;;;;5010153;28;20100;-79
2021/10/27 12:34:43;;;;;;;22.92;12.48;;;;;;;;;;5012181;28;20061;-79
2021/10/27 12:37:37;;;;;;;16.60;11.02;;;;;;;;;;5014371;28;20535;-79
2021/10/27 12:40:24;;;;;;;21.52;14.55;;;;;;;;;;5012672;28;20045;-79
2021/10/27 12:43:01;;;;;;;19.63;12.35;;;;;;;;;;5010129;28;20046;-79
2021/10/27 12:45:37;;;;;;;20.15;12.70;;;;;;;;;;5009213;28;20092;-78
2021/10/27 12:48:06;;;;;;;20.52;11.52;;;;;;;;;;5008769;28;20090;-78
2021/10/27 12:50:33;;;;;;;15.35;10.82;;;;;;;;;;5012926;28;20076;-79
2021/10/27 12:53:03;;;;;;;24.48;14.48;;;;;;;;;;5013982;28;20046;-78
2021/10/27 12:55:32;;;;;;;21.83;11.43;;;;;;;;;;5012682;28;20058;-79
2021/10/27 12:58:06;;;;;;;23.00;11.40;;;;;;;;;;5010008;28;20042;-78
2021/10/27 13:00:59;;;;;;;21.30;10.68;;;;;;;;;;5009667;28;20061;-78
2021/10/27 13:03:41;;;;;;;16.48;10.45;;;;;;;;;;5010023;28;20049;-78
2021/10/27 13:09:10;;;;;;;18.40;12.15;;;;;;;;;;5005155;28;20056;-78
2021/10/27 13:11:49;;;;;;;21.52;10.82;;;;;;;;;;5015160;28;20050;-79
2021/10/27 13:14:27;;;;;;;16.05;9.43;;;;;;;;;;5015890;28;20089;-79
2021/10/27 13:20:00;;;;;;;17.67;10.63;;;;;;;;;;4977912;28;20061;-80
2021/10/27 13:22:44;;;;;;;18.23;11.50;;;;;;;;;;5018521;28;20049;-79
2021/10/27 13:30:54;;;;;;;18.52;12.98;;;;;;;;;;5013931;28;20049;-79
2021/10/27 13:33:23;;;;;;;22.50;13.70;;;;;;;;;;5013707;28;20064;-78
2021/10/27 13:35:50;;;;;;;21.60;11.73;;;;;;;;;;5009563;28;20042;-78
2021/10/27 13:38:19;;;;;;;18.60;10.50;;;;;;;;;;5011142;28;20038;-78
2021/10/27 13:40:48;;;;;;;17.65;10.88;;;;;;;;;;5009809;28;20097;-79
2021/10/27 13:43:19;;;;;;;15.55;10.38;;;;;;;;;;5010038;28;20536;-79
2021/10/27 13:45:59;;;;;;;15.35;9.43;;;;;;;;;;5010455;28;20049;-78
2021/10/27 13:48:36;;;;;;;16.58;9.70;;;;;;;;;;5015207;28;20053;-84
2021/10/27 14:05:58;;;;;;;113.82;40.08;;;;;;;;;;5029930;28;20114;-81
2021/10/27 14:07:42;;;;;;;34.00;17.67;;;;;;;;;;5020531;28;20552;-79
2021/10/27 14:10:12;;;;;;;43.08;18.75;;;;;;;;;;5016718;28;20501;-81
2021/10/27 14:12:45;;;;;;;33.05;17.20;;;;;;;;;;5018877;28;20567;-79
2021/10/27 14:15:36;;;;;;;21.65;13.20;;;;;;;;;;5017236;28;20046;-81
2021/10/27 14:18:31;;;;;;;30.77;15.13;;;;;;;;;;5015151;28;20134;-81
2021/10/27 14:40:50;;;;;;;27.88;14.88;;;;;;;;;;5009635;28;20077;-79
2021/10/27 15:21:44;;;;;;;38.95;20.95;;;;;;;;;;5013568;28;19936;-79
2021/10/27 15:32:34;;;;;;;65.18;35.70;;;;;;;;;;4999221;28;20025;-80
2021/10/27 15:35:20;;;;;;;44.25;25.25;;;;;;;;;;5018715;28;20527;-81
2021/10/27 15:40:47;;;;;;;46.85;24.98;;;;;;;;;;5019347;28;20085;-80
2021/10/27 15:51:39;;;;;;;42.40;22.98;;;;;;;;;;5004774;28;20054;-81
2021/10/27 15:54:06;;;;;;;45.80;23.92;;;;;;;;;;5022544;28;20120;-79
2021/10/27 15:56:34;;;;;;;41.72;22.67;;;;;;;;;;5020256;28;20050;-83
2021/10/27 15:59:01;;;;;;;45.80;25.15;;;;;;;;;;5019275;28;20050;-85
2021/10/27 16:04:30;;;;;;;47.90;25.88;;;;;;;;;;4990334;28;20474;-86
2021/10/27 16:06:58;;;;;;;49.17;25.70;;;;;;;;;;5019374;28;20054;-86
2021/10/27 16:09:38;;;;;;;47.67;25.65;;;;;;;;;;5021117;28;20041;-86
2021/10/27 16:12:05;;;;;;;49.65;26.10;;;;;;;;;;5013731;28;20085;-87
2021/10/27 16:14:33;;;;;;;104.47;45.25;;;;;;;;;;5013851;28;20109;-85
2021/10/27 16:17:00;;;;;;;77.55;38.70;;;;;;;;;;5012381;28;20413;-83
2021/10/27 16:19:38;;;;;;;74.18;37.95;;;;;;;;;;5015367;28;20057;-82
2021/10/27 16:22:08;;;;;;;65.93;32.38;;;;;;;;;;5044468;22;20140;-87
2021/10/27 16:24:35;;;;;;;79.63;38.93;;;;;;;;;;5042978;28;20049;-86
2021/10/27 16:27:03;;;;;;;55.03;27.60;;;;;;;;;;5040980;28;20313;-86
2021/10/27 16:29:30;;;;;;;51.05;26.38;;;;;;;;;;5045541;28;20046;-85
2021/10/27 16:31:57;;;;;;;54.05;27.10;;;;;;;;;;5044600;28;20204;-85
2021/10/27 16:34:24;;;;;;;63.88;30.92;;;;;;;;;;5044359;28;20038;-85
2021/10/27 16:36:51;;;;;;;87.88;46.47;;;;;;;;;;5045802;28;20050;-82
2021/10/27 16:39:19;;;;;;;73.60;34.05;;;;;;;;;;5045596;28;20041;-85
2021/10/27 16:41:46;;;;;;;61.58;31.42;;;;;;;;;;5049569;28;20107;-85
2021/10/27 16:44:14;;;;;;;61.40;28.65;;;;;;;;;;5053924;28;20037;-86
2021/10/27 16:46:41;;;;;;;56.47;28.70;;;;;;;;;;5041040;28;20084;-83
2021/10/27 16:49:09;;;;;;;54.97;29.00;;;;;;;;;;5042190;28;20099;-84
2021/10/27 16:51:35;;;;;;;62.63;28.30;;;;;;;;;;5043877;28;20046;-83
2021/10/27 16:54:03;;;;;;;56.80;28.67;;;;;;;;;;5041958;28;20467;-85
2021/10/27 16:56:31;;;;;;;58.92;27.63;;;;;;;;;;5046297;28;20488;-84
2021/10/27 16:58:58;;;;;;;64.15;29.60;;;;;;;;;;5044563;28;20053;-83
2021/10/27 17:01:27;;;;;;;59.10;28.55;;;;;;;;;;5046458;28;20100;-84
2021/10/27 17:03:54;;;;;;;57.00;27.98;;;;;;;;;;5045043;28;20054;-83
2021/10/27 17:06:21;;;;;;;56.90;28.50;;;;;;;;;;5044296;28;20107;-82
2021/10/27 17:08:48;;;;;;;64.07;29.45;;;;;;;;;;5049442;28;20528;-84
2021/10/27 17:11:15;;;;;;;66.28;29.52;;;;;;;;;;5044780;28;20046;-83
2021/10/27 17:13:43;;;;;;;65.93;29.50;;;;;;;;;;5044445;28;20033;-85
2021/10/27 17:16:10;;;;;;;64.22;30.55;;;;;;;;;;5045383;28;20053;-83
2021/10/27 17:18:38;;;;;;;62.33;29.40;;;;;;;;;;5044915;28;20353;-83
2021/10/27 17:21:08;;;;;;;62.75;30.63;;;;;;;;;;5043759;28;20061;-85
2021/10/27 17:23:37;;;;;;;62.67;29.63;;;;;;;;;;5040623;28;20046;-85
2021/10/27 17:26:04;;;;;;;57.63;28.77;;;;;;;;;;5047291;28;20041;-84
2021/10/27 17:28:31;;;;;;;63.40;30.63;;;;;;;;;;5051135;28;20049;-84
2021/10/27 17:30:59;;;;;;;64.07;30.73;;;;;;;;;;5041351;28;20049;-85
2021/10/27 17:33:27;;;;;;;58.58;27.83;;;;;;;;;;5040306;28;20072;-84
2021/10/27 17:35:59;;;;;;;57.80;28.48;;;;;;;;;;5042309;28;20132;-84
2021/10/27 17:38:28;;;;;;;58.15;29.27;;;;;;;;;;5041169;28;20524;-84
2021/10/27 17:40:57;;;;;;;60.97;30.08;;;;;;;;;;5041000;28;20504;-84
2021/10/27 17:43:24;;;;;;;58.25;28.85;;;;;;;;;;5041809;28;20485;-83
2021/10/27 17:45:51;;;;;;;63.35;29.75;;;;;;;;;;5042209;28;20049;-84
2021/10/27 17:48:22;;;;;;;63.10;29.05;;;;;;;;;;5042886;28;20054;-84
2021/10/27 17:50:59;;;;;;;59.85;28.67;;;;;;;;;;5042046;28;20049;-84
2021/10/27 17:58:59;;;;;;;57.45;28.13;;;;;;;;;;5041321;28;20132;-82
2021/10/27 18:01:25;;;;;;;65.22;29.67;;;;;;;;;;5042069;28;20063;-84
2021/10/27 18:03:54;;;;;;;58.83;27.75;;;;;;;;;;5041606;28;20075;-83
2021/10/27 18:06:21;;;;;;;56.83;27.77;;;;;;;;;;5040814;28;20045;-85
2021/10/27 18:08:49;;;;;;;59.88;28.27;;;;;;;;;;5040544;28;20057;-85
2021/10/27 18:11:19;;;;;;;57.03;28.65;;;;;;;;;;5040800;28;20046;-85
2021/10/27 18:13:48;;;;;;;60.03;29.45;;;;;;;;;;5037779;28;20061;-84
2021/10/27 18:16:20;;;;;;;54.65;28.85;;;;;;;;;;5040321;28;20053;-82
2021/10/27 18:18:53;;;;;;;57.03;27.75;;;;;;;;;;5040630;28;20105;-84
2021/10/27 18:21:25;;;;;;;59.35;28.60;;;;;;;;;;5040205;28;20202;-84